Time;durP1;ratioP1;P1;durP2;ratioP2;P2;SDS_P1;SDS_P2;PMS_P1;PMS_P2;Temp;Humidity;BMP_temperature;BMP_pressure;BME280_temperature;BME280_humidity;BME280_pressure;Samples;Min_cycle;Max_cycle;Signal;HPM_P1;HPM_P2
2022/10/20 00:00:14;;;;;;;7.10;3.03;;;;;;;8.99;70.43;101977.28;2065223;28;20506;-71
2022/10/20 00:01:18;;;;;;;6.55;2.95;;;;;;;8.96;70.52;101975.88;2056994;28;20042;-71
2022/10/20 00:02:20;;;;;;;6.65;2.70;;;;;;;8.92;70.47;101969.34;2049806;28;20046;-71
2022/10/20 00:03:23;;;;;;;6.88;2.58;;;;;;;8.91;70.66;101969.56;2068022;28;20053;-71
2022/10/20 00:04:28;;;;;;;6.60;2.45;;;;;;;8.95;70.54;101974.25;2073269;28;20387;-71
2022/10/20 00:05:36;;;;;;;5.47;2.50;;;;;;;8.98;70.56;101976.44;2072390;28;20284;-71
2022/10/20 00:06:42;;;;;;;6.57;2.75;;;;;;;9.02;70.35;101977.63;2066347;28;20281;-72
2022/10/20 00:07:47;;;;;;;6.47;2.78;;;;;;;9.07;70.30;101984.16;2065368;28;20041;-71
2022/10/20 00:08:56;;;;;;;8.77;2.88;;;;;;;9.07;70.47;101978.78;2074091;28;20037;-71
2022/10/20 00:09:59;;;;;;;8.20;2.72;;;;;;;9.03;70.67;101981.94;2072650;28;20052;-71
2022/10/20 00:11:06;;;;;;;7.85;2.78;;;;;;;9.01;70.76;101975.16;2065612;28;20045;-71
2022/10/20 00:12:10;;;;;;;7.93;3.10;;;;;;;9.05;70.86;101976.34;2073191;28;20281;-71
2022/10/20 00:13:15;;;;;;;7.40;2.47;;;;;;;9.09;71.01;101976.69;2073191;28;20045;-71
2022/10/20 00:14:22;;;;;;;5.72;2.25;;;;;;;9.13;71.29;101977.84;2072682;28;20599;-71
2022/10/20 00:15:25;;;;;;;6.63;2.47;;;;;;;9.15;70.65;101984.63;2072815;28;20281;-71
2022/10/20 00:16:33;;;;;;;7.78;2.30;;;;;;;9.13;71.21;101977.84;2064783;28;20553;-71
2022/10/20 00:17:38;;;;;;;5.63;2.38;;;;;;;9.09;71.26;101979.38;2058739;28;20045;-71
2022/10/20 00:18:40;;;;;;;6.47;2.60;;;;;;;9.05;71.24;101976.34;2063761;28;20046;-71
2022/10/20 00:19:47;;;;;;;6.72;2.70;;;;;;;9.05;70.86;101979.84;2057207;28;20046;-71
2022/10/20 00:20:50;;;;;;;5.45;2.40;;;;;;;9.02;70.93;101980.31;2057523;28;20419;-72
2022/10/20 00:21:55;;;;;;;7.00;2.53;;;;;;;9.02;70.80;101972.28;2056866;28;20047;-72
2022/10/20 00:22:58;;;;;;;4.63;2.10;;;;;;;9.02;71.06;101976.81;2049663;28;20541;-73
2022/10/20 00:24:04;;;;;;;6.60;2.50;;;;;;;9.01;71.07;101973.28;2056919;28;20411;-71
2022/10/20 00:25:09;;;;;;;7.45;2.50;;;;;;;8.98;70.80;101971.06;2064773;28;20034;-71
2022/10/20 00:26:17;;;;;;;5.22;2.25;;;;;;;8.99;71.39;101967.38;2057459;28;20498;-72
2022/10/20 00:27:20;;;;;;;7.43;2.72;;;;;;;8.98;71.24;101970.28;2049633;28;20043;-72
2022/10/20 00:28:23;;;;;;;7.03;2.50;;;;;;;8.97;71.08;101969.44;2056909;28;20042;-73
2022/10/20 00:29:30;;;;;;;9.07;2.70;;;;;;;8.95;71.40;101970.72;2041955;28;20428;-72
2022/10/20 00:30:35;;;;;;;7.43;2.30;;;;;;;8.91;71.07;101964.22;2057901;28;20514;-72
2022/10/20 00:31:42;;;;;;;4.38;2.25;;;;;;;8.85;70.76;101968.63;2057256;28;20038;-71
2022/10/20 00:32:49;;;;;;;4.93;2.15;;;;;;;8.82;71.32;101966.41;2057899;28;20590;-71
2022/10/20 00:33:53;;;;;;;7.13;2.47;;;;;;;8.80;71.36;101966.66;2070519;28;20038;-71
2022/10/20 00:34:55;;;;;;;5.47;2.10;;;;;;;8.80;70.97;101963.16;2064713;28;20038;-69
2022/10/20 00:36:07;;;;;;;7.03;2.00;;;;;;;8.79;71.19;101961.50;2056314;28;20518;-70
2022/10/20 00:37:09;;;;;;;5.93;2.38;;;;;;;8.75;71.05;101960.34;2074210;28;20034;-71
2022/10/20 00:38:19;;;;;;;4.82;1.75;;;;;;;8.73;71.39;101962.44;2078748;28;20280;-71
2022/10/20 00:39:21;;;;;;;5.82;2.20;;;;;;;8.70;71.06;101961.06;2064514;28;20046;-70
2022/10/20 00:40:29;;;;;;;4.95;1.90;;;;;;;8.70;71.33;101962.91;2064748;28;20046;-73
2022/10/20 00:41:32;;;;;;;5.15;2.10;;;;;;;8.69;71.30;101964.75;2064820;28;20042;-74
2022/10/20 00:42:37;;;;;;;7.35;2.70;;;;;;;8.69;71.16;101962.09;2057212;28;20042;-74
2022/10/20 00:43:50;;;;;;;9.07;1.90;;;;;;;8.69;70.65;101961.28;2063845;28;20648;-72
2022/10/20 00:45:01;;;;;;;4.10;1.50;;;;;;;8.70;70.87;101958.38;2064232;28;20041;-72
2022/10/20 00:46:03;;;;;;;6.22;2.08;;;;;;;8.66;70.89;101962.53;2071478;28;20100;-71
2022/10/20 00:47:14;;;;;;;4.45;1.80;;;;;;;8.64;70.84;101959.31;2071391;28;20405;-71
2022/10/20 00:48:26;;;;;;;5.28;2.10;;;;;;;8.61;70.59;101953.56;2063727;28;20053;-71
2022/10/20 00:49:32;;;;;;;5.35;1.77;;;;;;;8.62;71.02;101952.53;2063383;28;20050;-71
2022/10/20 00:50:40;;;;;;;4.55;1.83;;;;;;;8.63;71.65;101956.84;2055618;28;20053;-71
2022/10/20 00:51:45;;;;;;;4.28;1.67;;;;;;;8.63;71.21;101954.16;2064342;28;20118;-71
2022/10/20 00:52:52;;;;;;;6.75;1.70;;;;;;;8.61;70.90;101958.91;2055337;28;20298;-71
2022/10/20 00:54:02;;;;;;;5.47;1.67;;;;;;;8.62;71.08;101955.22;2055637;28;20046;-72
2022/10/20 00:55:09;;;;;;;5.15;1.77;;;;;;;8.61;71.25;101958.91;2062958;28;20046;-72
2022/10/20 00:56:13;;;;;;;3.25;1.60;;;;;;;8.56;70.72;101949.72;2064063;28;20037;-72
2022/10/20 00:57:16;;;;;;;4.00;1.60;;;;;;;8.53;71.02;101952.84;2063418;28;20035;-72
2022/10/20 00:58:19;;;;;;;4.80;1.80;;;;;;;8.51;70.86;101952.28;2063335;28;20030;-72
2022/10/20 00:59:24;;;;;;;4.93;1.60;;;;;;;8.48;70.74;101950.06;2064044;28;20289;-71
2022/10/20 01:00:30;;;;;;;6.13;1.70;;;;;;;8.45;70.54;101949.69;2054881;28;20294;-71
2022/10/20 01:01:33;;;;;;;4.68;2.00;;;;;;;8.38;70.93;101952.47;2055914;28;20293;-71
2022/10/20 01:02:37;;;;;;;4.43;2.10;;;;;;;8.35;71.05;101952.91;2063203;28;20304;-71
2022/10/20 01:03:45;;;;;;;4.05;1.67;;;;;;;8.37;71.18;101950.81;2064924;28;20290;-72
2022/10/20 01:04:49;;;;;;;5.22;1.27;;;;;;;8.33;70.97;101945.09;2070463;28;20339;-71
2022/10/20 01:05:56;;;;;;;3.67;1.30;;;;;;;8.28;71.47;101944.94;2062944;28;20061;-72
2022/10/20 01:07:01;;;;;;;4.32;1.80;;;;;;;8.23;71.14;101946.69;2070612;28;20855;-72
2022/10/20 01:08:09;;;;;;;2.72;1.55;;;;;;;8.19;71.29;101945.50;2063085;28;20909;-72
2022/10/20 01:09:12;;;;;;;4.70;2.03;;;;;;;8.20;71.32;101936.44;2063393;28;20883;-72
2022/10/20 01:10:16;;;;;;;5.88;1.63;;;;;;;8.18;71.75;101939.34;2055342;28;20089;-72
2022/10/20 01:11:23;;;;;;;4.20;1.40;;;;;;;8.19;72.03;101935.59;2055446;28;20031;-72
2022/10/20 01:12:33;;;;;;;5.63;1.50;;;;;;;8.20;72.33;101939.94;2079331;28;20291;-72
2022/10/20 01:13:56;;;;;;;5.35;1.20;;;;;;;8.21;72.06;101938.88;2069813;28;20285;-72
2022/10/20 01:15:08;;;;;;;4.05;1.65;;;;;;;8.25;72.09;101928.53;2058186;28;20304;-72
2022/10/20 01:16:20;;;;;;;3.05;1.10;;;;;;;8.28;72.12;101936.91;2071374;28;20364;-71
2022/10/20 01:17:47;;;;;;;4.82;1.42;;;;;;;8.33;72.16;101936.25;2052605;28;20042;-72
2022/10/20 01:19:15;;;;;;;4.85;1.42;;;;;;;8.38;71.50;101936.38;2056237;28;20772;-72
2022/10/20 01:20:45;;;;;;;3.88;1.40;;;;;;;8.38;71.42;101932.88;2069509;28;20293;-71
2022/10/20 01:22:13;;;;;;;3.13;1.27;;;;;;;8.37;71.47;101940.09;2071548;28;20060;-71
2022/10/20 01:23:54;;;;;;;5.32;1.30;;;;;;;8.36;70.79;101930.44;2071989;28;20328;-72
2022/10/20 01:25:32;;;;;;;3.75;1.30;;;;;;;8.37;71.23;101932.06;2068877;28;20382;-71
2022/10/20 01:26:56;;;;;;;2.38;1.30;;;;;;;8.40;71.25;101925.44;2049696;28;20061;-71
2022/10/20 01:28:21;;;;;;;2.90;1.45;;;;;;;8.44;71.13;101927.44;2063590;28;20633;-72
2022/10/20 01:29:54;;;;;;;6.40;1.45;;;;;;;8.46;70.78;101927.22;2072505;28;20299;-72
2022/10/20 01:30:59;;;;;;;3.92;1.40;;;;;;;8.46;70.69;101922.66;2072817;28;20292;-72
2022/10/20 01:32:14;;;;;;;7.47;1.85;;;;;;;8.45;70.77;101929.09;2072590;28;20284;-72
2022/10/20 01:33:49;;;;;;;4.75;1.60;;;;;;;8.38;70.81;101928.34;2072745;28;20288;-72
2022/10/20 01:35:03;;;;;;;1.98;1.15;;;;;;;8.34;70.68;101932.50;2064137;28;20289;-72
2022/10/20 01:36:32;;;;;;;3.90;1.00;;;;;;;8.30;70.70;101928.66;2076565;28;20297;-72
2022/10/20 01:37:52;;;;;;;1.98;1.20;;;;;;;8.24;70.68;101929.56;2077690;28;20296;-72
2022/10/20 01:39:02;;;;;;;2.58;1.13;;;;;;;8.21;70.47;101933.53;2073633;28;20089;-73
2022/10/20 01:40:09;;;;;;;2.17;1.15;;;;;;;8.13;70.84;101937.34;2073366;28;20276;-72
2022/10/20 01:41:22;;;;;;;6.00;1.25;;;;;;;8.06;70.78;101933.94;2066167;28;20296;-72
2022/10/20 01:42:28;;;;;;;4.38;1.20;;;;;;;8.02;70.74;101935.44;2050739;28;20305;-72
2022/10/20 01:43:33;;;;;;;3.75;1.52;;;;;;;7.96;71.39;101931.00;2059014;28;20293;-73
2022/10/20 01:44:42;;;;;;;3.22;1.30;;;;;;;7.91;71.42;101933.53;2065446;28;20289;-73
2022/10/20 01:45:51;;;;;;;2.80;1.23;;;;;;;7.87;71.90;101935.03;2060034;28;20639;-71
2022/10/20 01:47:00;;;;;;;2.33;1.27;;;;;;;7.79;71.61;101940.72;2073451;28;20065;-71
2022/10/20 01:48:08;;;;;;;4.18;1.45;;;;;;;7.77;72.08;101937.44;2064799;28;20525;-71
2022/10/20 01:49:14;;;;;;;4.40;1.35;;;;;;;7.76;72.01;101936.63;2050570;28;20282;-71
2022/10/20 01:50:20;;;;;;;3.50;1.35;;;;;;;7.76;72.13;101941.16;2065579;28;20280;-71
2022/10/20 01:51:26;;;;;;;3.70;1.40;;;;;;;7.76;72.37;101935.81;2065937;28;20278;-71
2022/10/20 01:52:32;;;;;;;5.88;1.25;;;;;;;7.76;72.29;101936.63;2073380;28;20276;-71
2022/10/20 01:53:37;;;;;;;2.58;1.05;;;;;;;7.72;72.08;101939.97;2066231;28;20301;-70
2022/10/20 01:54:44;;;;;;;2.45;1.30;;;;;;;7.77;72.41;101942.78;2066070;28;20289;-71
2022/10/20 01:55:54;;;;;;;3.63;1.50;;;;;;;7.78;72.25;101944.41;2074288;28;20296;-71
2022/10/20 01:57:11;;;;;;;4.05;1.60;;;;;;;7.76;72.30;101935.81;2079863;28;20272;-71
2022/10/20 01:58:38;;;;;;;2.95;1.20;;;;;;;7.77;72.10;101940.94;2070669;28;20277;-71
2022/10/20 02:00:07;;;;;;;3.08;1.13;;;;;;;7.77;72.65;101940.13;2059731;28;20050;-71
2022/10/20 02:01:58;;;;;;;3.78;1.20;;;;;;;7.75;72.42;101934.16;2062530;28;20285;-71
2022/10/20 02:03:02;;;;;;;4.00;1.00;;;;;;;7.74;72.44;101933.34;2045893;28;20297;-71
2022/10/20 02:04:11;;;;;;;3.97;1.55;;;;;;;7.77;72.25;101937.44;2072177;28;20307;-71
2022/10/20 02:05:12;;;;;;;3.05;1.50;;;;;;;7.77;72.56;101937.44;2056198;28;20289;-71
2022/10/20 02:06:29;;;;;;;3.67;1.27;;;;;;;7.81;72.55;101933.25;2048128;28;20290;-70
2022/10/20 02:07:33;;;;;;;8.73;2.95;;;;;;;7.84;72.42;101935.47;2060173;28;20290;-70
2022/10/20 02:08:51;;;;;;;2.55;1.20;;;;;;;7.86;72.60;101930.72;2072006;28;20281;-70
2022/10/20 02:10:08;;;;;;;5.05;1.40;;;;;;;7.84;72.32;101928.25;2072235;28;20285;-70
2022/10/20 02:11:38;;;;;;;3.10;1.40;;;;;;;7.86;72.47;101931.53;2070397;28;20284;-70
2022/10/20 02:12:47;;;;;;;3.55;1.48;;;;;;;7.86;72.56;101930.72;2072804;28;20811;-71
2022/10/20 02:13:54;;;;;;;3.20;1.33;;;;;;;7.89;72.62;101935.63;2073792;28;20292;-70
2022/10/20 02:14:59;;;;;;;3.97;1.35;;;;;;;7.92;72.87;101934.38;2073386;28;20289;-71
2022/10/20 02:16:08;;;;;;;4.10;1.50;;;;;;;7.94;72.48;101927.72;2065294;28;20030;-71
2022/10/20 02:17:16;;;;;;;4.63;1.45;;;;;;;7.99;72.74;101935.91;2072466;28;20799;-71
2022/10/20 02:18:25;;;;;;;2.60;1.20;;;;;;;7.98;72.16;101928.09;2065858;28;20041;-71
2022/10/20 02:19:32;;;;;;;4.03;1.55;;;;;;;7.92;72.53;101935.19;2065133;28;20293;-70
2022/10/20 02:20:40;;;;;;;7.13;1.80;;;;;;;7.88;72.52;101928.63;2073276;28;20529;-71
2022/10/20 02:21:47;;;;;;;4.93;1.45;;;;;;;7.89;73.35;101930.28;2072813;28;20285;-71
2022/10/20 02:22:50;;;;;;;6.50;1.77;;;;;;;7.88;72.63;101928.63;2073160;28;20429;-71
2022/10/20 02:23:54;;;;;;;3.53;1.40;;;;;;;7.89;73.12;101927.59;2073062;28;20296;-71
2022/10/20 02:24:58;;;;;;;4.65;1.30;;;;;;;7.87;73.08;101933.16;2065453;28;20297;-72
2022/10/20 02:26:06;;;;;;;7.30;1.60;;;;;;;7.87;73.11;101927.00;2065804;28;20630;-71
2022/10/20 02:27:21;;;;;;;6.57;1.50;;;;;;;7.85;72.91;101929.09;2066000;28;20678;-71
2022/10/20 02:28:29;;;;;;;5.20;1.70;;;;;;;7.85;72.96;101932.59;2067284;28;20797;-72
2022/10/20 02:29:37;;;;;;;4.22;1.70;;;;;;;7.86;73.30;101930.72;2056647;28;20305;-71
2022/10/20 02:30:43;;;;;;;3.92;1.63;;;;;;;7.83;73.28;101939.22;2049796;28;20298;-71
2022/10/20 02:31:48;;;;;;;2.92;1.30;;;;;;;7.80;73.28;101937.81;2050063;28;20743;-72
2022/10/20 02:32:54;;;;;;;4.63;1.50;;;;;;;7.80;73.63;101934.31;2064962;28;20293;-72
2022/10/20 02:34:01;;;;;;;3.42;1.83;;;;;;;7.85;73.48;101929.09;2071369;28;20285;-72
2022/10/20 02:35:11;;;;;;;4.65;1.75;;;;;;;7.85;73.54;101931.78;2055940;28;20361;-73
2022/10/20 02:36:19;;;;;;;;;;;;;;;7.87;73.69;101938.53;2065490;28;20297;-72
2022/10/20 02:37:23;;;;;;;5.88;1.40;;;;;;;7.89;73.71;101931.09;2070030;28;19924;-72
2022/10/20 02:38:28;;;;;;;3.83;1.58;;;;;;;7.95;73.58;101934.72;2064468;28;20794;-72
2022/10/20 02:39:37;;;;;;;3.97;1.38;;;;;;;8.00;73.61;101936.72;2064053;28;20285;-72
2022/10/20 02:40:45;;;;;;;5.60;1.80;;;;;;;8.00;73.27;101934.84;2057028;28;20050;-72
2022/10/20 02:41:52;;;;;;;4.28;1.70;;;;;;;7.99;73.38;101932.41;2055869;28;20301;-73
2022/10/20 02:42:57;;;;;;;7.45;1.63;;;;;;;8.01;73.26;101928.47;2050521;28;20774;-73
2022/10/20 02:44:01;;;;;;;4.18;1.70;;;;;;;8.02;73.53;101929.28;2065141;28;20293;-72
2022/10/20 02:45:09;;;;;;;2.97;1.50;;;;;;;8.02;73.28;101923.91;2064857;28;20277;-73
2022/10/20 02:46:13;;;;;;;6.35;1.77;;;;;;;8.01;73.28;101933.81;2065772;28;20285;-73
2022/10/20 02:47:18;;;;;;;5.15;1.40;;;;;;;8.00;73.21;101926.81;2056740;28;20792;-72
2022/10/20 02:48:23;;;;;;;4.85;1.52;;;;;;;7.99;73.23;101929.72;2050337;28;20635;-73
2022/10/20 02:49:30;;;;;;;3.42;1.40;;;;;;;7.97;72.60;101932.63;2057783;28;20313;-73
2022/10/20 02:50:33;;;;;;;3.55;1.55;;;;;;;8.00;73.40;101936.72;2056102;28;20670;-73
2022/10/20 02:51:36;;;;;;;3.63;1.42;;;;;;;8.04;73.49;101935.19;2065083;28;20289;-72
2022/10/20 02:52:41;;;;;;;4.95;1.48;;;;;;;8.03;73.08;101926.34;2065198;28;20292;-72
2022/10/20 02:53:43;;;;;;;3.83;1.40;;;;;;;8.01;73.21;101928.47;2065253;28;20642;-72
2022/10/20 02:54:51;;;;;;;3.63;1.25;;;;;;;7.97;73.09;101929.94;2072054;28;20285;-72
2022/10/20 02:55:55;;;;;;;3.45;1.13;;;;;;;7.98;72.99;101926.25;2072503;28;20272;-72
2022/10/20 02:57:01;;;;;;;4.30;1.13;;;;;;;8.03;72.80;101929.03;2064272;28;20284;-72
2022/10/20 02:58:03;;;;;;;5.55;1.35;;;;;;;8.04;72.90;101928.00;2048755;28;20290;-72
2022/10/20 02:59:08;;;;;;;2.05;1.20;;;;;;;8.03;72.53;101925.53;2048362;28;20644;-73
2022/10/20 03:00:14;;;;;;;4.55;1.30;;;;;;;8.04;73.06;101941.41;2057431;28;20297;-72
2022/10/20 03:01:16;;;;;;;4.15;1.20;;;;;;;8.02;72.31;101930.09;2057502;28;20298;-72
2022/10/20 03:02:21;;;;;;;3.10;1.38;;;;;;;7.97;72.57;101927.25;2064720;28;20277;-72
2022/10/20 03:03:26;;;;;;;6.43;1.38;;;;;;;7.94;72.08;101935.75;2064278;28;20746;-72
2022/10/20 03:04:32;;;;;;;3.90;1.40;;;;;;;7.88;72.18;101928.63;2063779;28;20309;-72
2022/10/20 03:05:40;;;;;;;2.95;1.02;;;;;;;7.85;72.45;101935.28;2061470;28;21110;-72
2022/10/20 03:06:42;;;;;;;7.18;1.75;;;;;;;7.80;72.68;101931.63;2072965;28;20280;-72
2022/10/20 03:07:45;;;;;;;2.80;1.15;;;;;;;7.78;72.89;101931.84;2071521;28;20307;-72
2022/10/20 03:08:50;;;;;;;3.30;1.10;;;;;;;7.78;72.59;101931.03;2048919;28;20306;-73
2022/10/20 03:09:58;;;;;;;4.35;1.10;;;;;;;7.79;72.76;101935.38;2057416;28;20293;-72
2022/10/20 03:11:01;;;;;;;3.38;1.50;;;;;;;7.82;72.71;101934.91;2071774;28;20347;-73
2022/10/20 03:12:06;;;;;;;3.60;1.52;;;;;;;7.85;72.66;101934.47;2071617;28;20757;-72
2022/10/20 03:13:09;;;;;;;7.13;1.50;;;;;;;7.84;72.15;101938.97;2071773;28;20277;-72
2022/10/20 03:14:14;;;;;;;2.35;1.00;;;;;;;7.82;72.16;101929.56;2073348;28;20280;-72
2022/10/20 03:15:20;;;;;;;4.15;1.50;;;;;;;7.83;72.03;101936.53;2057744;28;20794;-72
2022/10/20 03:16:26;;;;;;;3.63;1.25;;;;;;;7.80;72.33;101931.63;2066764;28;20300;-72
2022/10/20 03:17:31;;;;;;;2.22;1.08;;;;;;;7.79;72.37;101940.72;2074319;28;20285;-72
2022/10/20 03:18:36;;;;;;;4.47;1.40;;;;;;;7.77;72.36;101940.94;2074293;28;20308;-72
2022/10/20 03:19:40;;;;;;;3.03;1.38;;;;;;;7.76;72.45;101941.16;2075167;28;20319;-72
2022/10/20 03:20:43;;;;;;;4.72;1.00;;;;;;;7.75;72.64;101942.19;2072876;28;20301;-72
2022/10/20 03:21:49;;;;;;;3.80;0.98;;;;;;;7.73;72.27;101949.66;2074036;28;20299;-72
2022/10/20 03:22:56;;;;;;;3.33;1.00;;;;;;;7.72;72.26;101948.00;2058983;28;20302;-73
2022/10/20 03:24:06;;;;;;;1.52;0.90;;;;;;;7.77;72.38;101940.13;2068680;28;20626;-72
2022/10/20 03:25:11;;;;;;;2.80;0.90;;;;;;;7.79;72.32;101943.41;2074531;28;20038;-73
2022/10/20 03:26:18;;;;;;;2.58;1.10;;;;;;;7.81;72.32;101949.31;2074546;28;20272;-72
2022/10/20 03:27:24;;;;;;;2.88;1.02;;;;;;;7.83;72.61;101944.56;2073866;28;20292;-72
2022/10/20 03:28:27;;;;;;;4.43;1.00;;;;;;;7.84;72.56;101949.69;2074639;28;20648;-73
2022/10/20 03:29:37;;;;;;;4.60;0.90;;;;;;;7.81;72.28;101947.47;2065872;28;20289;-73
2022/10/20 03:30:41;;;;;;;2.35;0.80;;;;;;;7.79;72.34;101946.06;2068897;28;20285;-73
2022/10/20 03:31:44;;;;;;;1.50;0.70;;;;;;;7.83;72.20;101952.59;2066173;28;20380;-72
2022/10/20 03:32:48;;;;;;;2.95;0.88;;;;;;;7.86;72.12;101955.63;2058503;28;20298;-74
2022/10/20 03:33:53;;;;;;;3.92;0.98;;;;;;;7.89;72.14;101951.69;2066941;28;20773;-73
2022/10/20 03:34:59;;;;;;;1.67;0.85;;;;;;;7.89;72.03;101957.06;2065976;28;20305;-73
2022/10/20 03:36:01;;;;;;;5.35;0.98;;;;;;;7.94;71.70;101951.00;2051072;28;20667;-73
2022/10/20 03:37:06;;;;;;;3.33;0.80;;;;;;;7.97;71.41;101954.03;2058107;28;20822;-73
2022/10/20 03:38:09;;;;;;;2.58;0.90;;;;;;;7.99;71.36;101945.81;2066920;28;20281;-73
2022/10/20 03:39:12;;;;;;;1.00;0.60;;;;;;;7.98;70.79;101958.38;2073793;28;20296;-73
2022/10/20 03:40:17;;;;;;;2.22;0.80;;;;;;;7.97;71.06;101954.03;2066235;28;20304;-73
2022/10/20 03:41:24;;;;;;;5.15;0.85;;;;;;;7.99;71.18;101954.66;2059075;28;20389;-72
2022/10/20 03:42:32;;;;;;;1.95;0.60;;;;;;;8.05;71.42;101960.97;2074186;28;20281;-73
2022/10/20 03:43:40;;;;;;;1.15;0.70;;;;;;;8.07;70.89;101965.06;2074734;28;20288;-73
2022/10/20 03:44:46;;;;;;;1.23;0.63;;;;;;;8.08;70.69;101966.69;2074316;28;20641;-72
2022/10/20 03:46:03;;;;;;;1.30;0.70;;;;;;;8.15;70.74;101961.22;2073343;28;20763;-72
2022/10/20 03:47:05;;;;;;;1.35;0.68;;;;;;;8.16;70.25;101960.16;2065258;28;20293;-72
2022/10/20 03:48:10;;;;;;;1.13;0.60;;;;;;;8.18;70.21;101954.59;2057091;28;20289;-71
2022/10/20 03:49:13;;;;;;;2.45;0.80;;;;;;;8.19;69.82;101951.69;2065797;28;20289;-71
2022/10/20 03:50:17;;;;;;;3.15;0.75;;;;;;;8.17;70.05;101953.78;2071607;28;20299;-71
2022/10/20 03:51:26;;;;;;;3.05;0.70;;;;;;;8.18;69.58;101955.41;2073138;28;20792;-71
2022/10/20 03:52:28;;;;;;;2.88;0.63;;;;;;;8.23;70.45;101957.41;2073314;28;20285;-71
2022/10/20 03:53:36;;;;;;;1.40;0.60;;;;;;;8.22;69.85;101961.13;2072317;28;21191;-71
2022/10/20 03:54:41;;;;;;;5.88;0.85;;;;;;;8.22;69.79;101958.44;2064975;28;20288;-71
2022/10/20 03:55:45;;;;;;;1.70;0.80;;;;;;;8.22;69.96;101956.59;2049396;28;20301;-72
2022/10/20 03:56:50;;;;;;;4.22;0.73;;;;;;;8.24;69.76;101964.41;2065983;28;20289;-72
2022/10/20 03:57:56;;;;;;;1.50;0.77;;;;;;;8.24;69.98;101962.53;2074156;28;20299;-72
2022/10/20 03:58:58;;;;;;;2.40;0.88;;;;;;;8.28;70.22;101954.84;2066093;28;20308;-72
2022/10/20 04:00:06;;;;;;;2.58;1.05;;;;;;;8.30;69.95;101960.81;2065853;28;20281;-72
2022/10/20 04:01:19;;;;;;;1.02;0.55;;;;;;;8.30;69.48;101958.13;2074416;28;20312;-72
2022/10/20 04:02:29;;;;;;;3.50;0.77;;;;;;;8.33;70.01;101961.19;2066883;28;20058;-72
2022/10/20 04:03:36;;;;;;;1.30;0.80;;;;;;;8.34;70.01;101967.34;2059253;28;20290;-72
2022/10/20 04:04:42;;;;;;;3.00;0.60;;;;;;;8.36;69.48;101959.91;2068457;28;20360;-72
2022/10/20 04:05:48;;;;;;;3.22;0.65;;;;;;;8.30;69.23;101963.50;2073046;28;20296;-72
2022/10/20 04:06:52;;;;;;;0.90;0.55;;;;;;;8.29;69.51;101967.19;2066890;28;20278;-72
2022/10/20 04:08:03;;;;;;;0.85;0.45;;;;;;;8.26;69.25;101956.94;2066798;28;20289;-72
2022/10/20 04:09:07;;;;;;;1.48;0.70;;;;;;;8.28;69.46;101968.25;2074091;28;20287;-71
2022/10/20 04:10:11;;;;;;;3.00;0.60;;;;;;;8.30;69.12;101966.19;2074309;28;20284;-72
2022/10/20 04:11:16;;;;;;;1.15;0.60;;;;;;;8.31;69.23;101965.13;2066393;28;20276;-71
2022/10/20 04:12:19;;;;;;;1.80;0.60;;;;;;;8.32;69.06;101962.22;2066434;28;20642;-71
2022/10/20 04:13:22;;;;;;;1.33;0.70;;;;;;;8.36;68.79;101967.94;2058057;28;20297;-71
2022/10/20 04:14:27;;;;;;;1.95;0.40;;;;;;;8.35;68.76;101960.94;2058663;28;20282;-70
2022/10/20 04:15:31;;;;;;;2.25;0.60;;;;;;;8.31;68.44;101959.75;2066405;28;20300;-70
2022/10/20 04:16:34;;;;;;;2.60;0.50;;;;;;;8.29;68.90;101964.53;2073514;28;20288;-70
2022/10/20 04:17:37;;;;;;;2.05;0.43;;;;;;;8.29;68.66;101961.84;2072028;28;20285;-70
2022/10/20 04:18:47;;;;;;;2.03;0.63;;;;;;;8.28;68.40;101960.22;2065409;28;20428;-70
2022/10/20 04:19:53;;;;;;;1.15;0.50;;;;;;;8.26;68.37;101968.50;2073127;28;20281;-70
2022/10/20 04:21:00;;;;;;;1.10;0.52;;;;;;;8.27;68.55;101966.63;2071925;28;20300;-71
2022/10/20 04:22:03;;;;;;;3.40;0.70;;;;;;;8.28;68.29;101965.56;2072892;28;20320;-71
2022/10/20 04:23:05;;;;;;;2.60;0.85;;;;;;;8.28;68.37;101970.94;2056814;28;20289;-71
2022/10/20 04:24:07;;;;;;;1.30;0.60;;;;;;;8.27;68.07;101963.97;2056985;28;20304;-71
2022/10/20 04:25:12;;;;;;;2.92;0.73;;;;;;;8.21;68.12;101971.03;2064109;28;20290;-72
2022/10/20 04:26:22;;;;;;;4.40;0.50;;;;;;;8.19;68.00;101966.94;2072940;28;20766;-73
2022/10/20 04:27:24;;;;;;;2.47;0.50;;;;;;;8.19;67.81;101961.59;2072586;28;20704;-74
2022/10/20 04:28:29;;;;;;;2.20;0.57;;;;;;;8.15;67.91;101960.41;2057001;28;20682;-73
2022/10/20 04:29:34;;;;;;;0.85;0.40;;;;;;;8.12;67.61;101962.50;2065518;28;20777;-72
2022/10/20 04:30:41;;;;;;;1.90;0.60;;;;;;;8.05;67.78;101967.13;2057006;28;20290;-72
2022/10/20 04:31:46;;;;;;;0.75;0.50;;;;;;;8.08;67.86;101961.31;2050640;28;20374;-71
2022/10/20 04:32:50;;;;;;;0.50;0.40;;;;;;;8.07;67.49;101951.66;2057343;28;20301;-71
2022/10/20 04:33:55;;;;;;;2.95;0.50;;;;;;;8.04;67.52;101960.16;2057280;28;20298;-71
2022/10/20 04:35:04;;;;;;;1.02;0.50;;;;;;;8.05;67.95;101952.94;2065528;28;20285;-71
2022/10/20 04:36:11;;;;;;;2.75;0.60;;;;;;;8.03;67.43;101953.16;2063999;28;20301;-72
2022/10/20 04:37:16;;;;;;;1.40;0.47;;;;;;;8.01;67.43;101957.94;2065448;28;20281;-72
2022/10/20 04:38:19;;;;;;;1.00;0.50;;;;;;;8.00;67.63;101953.59;2065543;28;20670;-73
2022/10/20 04:39:24;;;;;;;1.13;0.50;;;;;;;8.00;67.56;101948.25;2073144;28;20296;-72
2022/10/20 04:40:28;;;;;;;0.47;0.32;;;;;;;7.97;67.52;101954.03;2073654;28;20299;-72
2022/10/20 04:41:40;;;;;;;2.70;0.55;;;;;;;7.96;67.47;101957.78;2071572;28;20281;-71
2022/10/20 04:42:45;;;;;;;0.70;0.50;;;;;;;7.90;67.38;101958.69;2073319;28;20304;-71
2022/10/20 04:43:51;;;;;;;1.15;0.60;;;;;;;7.89;67.43;101957.88;2073839;28;20285;-71
2022/10/20 04:44:59;;;;;;;1.95;0.50;;;;;;;7.89;67.50;101957.06;2073842;28;20288;-71
2022/10/20 04:46:10;;;;;;;2.15;0.40;;;;;;;7.90;67.31;101953.31;2072663;28;20620;-71
2022/10/20 04:47:14;;;;;;;1.05;0.40;;;;;;;7.87;67.28;101956.47;2072325;28;20293;-71
2022/10/20 04:48:23;;;;;;;3.50;0.50;;;;;;;7.85;67.48;101956.69;2064401;28;20434;-71
2022/10/20 04:49:29;;;;;;;1.45;0.65;;;;;;;7.82;67.69;101956.34;2072491;28;20664;-70
2022/10/20 04:50:34;;;;;;;2.05;0.70;;;;;;;7.81;67.35;101949.31;2064143;28;20281;-70
2022/10/20 04:51:47;;;;;;;0.60;0.40;;;;;;;7.82;67.58;101950.97;2065233;28;20288;-70
2022/10/20 04:52:50;;;;;;;4.10;0.60;;;;;;;7.81;67.71;101957.34;2063506;28;21077;-71
2022/10/20 04:53:55;;;;;;;4.30;1.10;;;;;;;7.79;67.69;101946.06;2064039;28;20304;-70
2022/10/20 04:54:59;;;;;;;2.47;0.40;;;;;;;7.72;67.93;101951.47;2071971;28;20285;-70
2022/10/20 04:56:05;;;;;;;1.23;0.60;;;;;;;7.74;67.99;101953.94;2071984;28;20280;-70
2022/10/20 04:57:09;;;;;;;1.45;0.70;;;;;;;7.71;67.71;101955.22;2063291;28;20301;-70
2022/10/20 04:58:17;;;;;;;1.20;0.60;;;;;;;7.67;67.93;101951.34;2056542;28;20635;-70
2022/10/20 04:59:19;;;;;;;0.95;0.50;;;;;;;7.62;67.66;101948.53;2055624;28;20306;-75
2022/10/20 05:00:22;;;;;;;2.60;0.60;;;;;;;7.58;67.91;101947.34;2055310;28;20298;-74
2022/10/20 05:01:29;;;;;;;1.80;0.40;;;;;;;7.58;68.23;101944.66;2071336;28;20650;-74
2022/10/20 05:02:31;;;;;;;2.88;0.50;;;;;;;7.58;68.35;101950.03;2060758;28;20282;-73
2022/10/20 05:03:41;;;;;;;1.63;0.70;;;;;;;7.59;68.43;101957.00;2063344;28;20304;-74
2022/10/20 05:04:44;;;;;;;1.10;0.60;;;;;;;7.56;68.42;101952.91;2054660;28;20282;-74
2022/10/20 05:05:47;;;;;;;1.10;0.50;;;;;;;7.54;68.57;101944.31;2055741;28;20290;-73
2022/10/20 05:06:48;;;;;;;1.52;0.55;;;;;;;7.53;68.31;101947.19;2063676;28;20760;-74
2022/10/20 05:07:56;;;;;;;3.00;0.60;;;;;;;7.55;68.67;101937.09;2063685;28;20769;-74
2022/10/20 05:09:08;;;;;;;3.10;0.73;;;;;;;7.58;68.85;101944.66;2056890;28;20289;-72
2022/10/20 05:10:12;;;;;;;1.23;0.60;;;;;;;7.57;68.66;101943.03;2055701;28;20049;-70
2022/10/20 05:11:22;;;;;;;7.40;0.95;;;;;;;7.58;68.60;101945.50;2047116;28;20298;-70
2022/10/20 05:12:27;;;;;;;1.45;0.75;;;;;;;7.55;68.96;101948.63;2056001;28;20302;-70
2022/10/20 05:13:35;;;;;;;1.95;0.63;;;;;;;7.53;68.51;101945.31;2055754;28;20289;-70
2022/10/20 05:14:42;;;;;;;1.98;0.80;;;;;;;7.53;68.68;101952.53;2066671;28;20280;-70
2022/10/20 05:15:51;;;;;;;2.65;0.70;;;;;;;7.52;68.79;101949.06;2060204;28;20657;-70
2022/10/20 05:16:55;;;;;;;4.40;0.68;;;;;;;7.50;68.62;101953.81;2054908;28;20352;-70
2022/10/20 05:18:00;;;;;;;1.15;0.65;;;;;;;7.46;68.71;101946.47;2064828;28;20293;-70